Veendam — PHEO — position and weather

sailwx.info

Track history (hours):
 
Tides and Currents Weather Stations Pressure Air Temp Water Temp Dewpoint Dewpoint Depression Visibility Wind Speed Wind Dir Waves Ship Positions

Veendam (Netherlands)

Last reported at 2019-Mar-21 12:00 UTC. Time now 2019-Mar-22 12:29 UTC.
Position N 09°18' W 056°12'.

Type: Ship. MMSI: 246506000.

Wind from 060 at 25 knots

Barometer 1013.0 mb
Air temperature 26.0 ° C
Visibility: greater than 10.8 NM
Dewpoint 19.9 ° C
Water temperature 27.0 ° C

Date/timePositionNaut miles runAvg speedWind from/ knotsBaromVisibWave heightAir tempDewpointWater temp
2019-Mar-21 12:00N 09°18' W 056°12'1716.9 060 / 251013.010.8 26.019.927.0
2019-Mar-21 11:00N 09°06' W 056°00'2121.4 060 / 251012.010.8 26.019.927.0
2019-Mar-21 10:00N 08°54' W 055°42'44919.5 050 / 251012.010.8 26.019.927.0
2019-Mar-20 11:00N 03°48' W 050°12'2221.6 050 / 301009.010.8 28.022.128.0
2019-Mar-20 10:00N 03°36' W 049°54'6817.0 050 / 301009.010.8 28.022.128.0
2019-Mar-20 06:00N 02°48' W 049°06'18614.3 050 / 281009.010.8 27.024.129.0
2019-Mar-19 17:02N 00°11' W 050°45'117.3
2019-Mar-19 16:57N 00°11' W 050°47'716.6
2019-Mar-19 16:30N 00°10' W 050°54'714.3
2019-Mar-19 16:00N 00°05' W 050°59'713.9
2019-Mar-19 15:30S 00°01' W 051°03'611.3
2019-Mar-19 15:00S 00°05' W 051°07'612.4
2019-Mar-19 14:30S 00°08' W 051°13'510.4
2019-Mar-19 14:00S 00°11' W 051°16'917.2
2019-Mar-19 13:30S 00°18' W 051°21'1018.9
2019-Mar-19 12:58S 00°27' W 051°26'3417.3
2019-Mar-19 11:00S 01°00' W 051°36'1313.4 060 / 121010.010.8 26.024.628.0
2019-Mar-19 10:00S 01°06' W 051°48'1919.0 030 / 121009.010.8 26.024.628.0
2019-Mar-19 09:00S 01°24' W 051°54'13318.2 070 / 141009.010.8 25.023.528.0
2019-Mar-19 01:43S 02°02' W 054°01'2016.5
2019-Mar-19 00:32S 02°21' W 054°05'215.1
2019-Mar-19 00:25S 02°22' W 054°06'717.7
2019-Mar-19 00:00S 02°23' W 054°13'1019.1
2019-Mar-18 23:30S 02°25' W 054°23'918.4
2019-Mar-18 23:01S 02°28' W 054°32'917.7
2019-Mar-18 22:30S 02°25' W 054°40'4 8.0
2019-Mar-18 22:00S 02°24' W 054°44'4 7.9
2019-Mar-18 21:30S 02°24' W 054°48'815.9
2019-Mar-18 21:00S 02°26' W 054°56'610.4
2019-Mar-18 20:29S 02°30' W 054°59'2 0.2
2019-Mar-18 09:45S 02°28' W 055°00'312.3
2019-Mar-18 09:30S 02°26' W 054°58'612.4
2019-Mar-18 09:01S 02°24' W 054°52'611.3
2019-Mar-18 08:30S 02°24' W 054°46'3 6.5
2019-Mar-18 08:00S 02°25' W 054°43'3 6.9
2019-Mar-18 07:31S 02°21' W 054°44'816.2
2019-Mar-18 07:00S 02°13' W 054°47'714.1
2019-Mar-18 06:30S 02°10' W 054°52'816.3
2019-Mar-18 06:00S 02°13' W 054°60'611.1
2019-Mar-18 05:30S 02°12' W 055°05'816.1
2019-Mar-18 05:00S 02°09' W 055°13'5212.6
2019-Mar-18 00:51S 02°06' W 056°05'615.0
2019-Mar-18 00:29S 02°09' W 056°10'114 5.9
2019-Mar-17 05:11S 02°48' W 057°57'618.4
2019-Mar-17 04:53S 02°49' W 058°03'717.7
2019-Mar-17 04:30S 02°53' W 058°08'1018.8
2019-Mar-17 03:59S 03°03' W 058°10'818.0
2019-Mar-17 03:30S 03°11' W 058°12'714.9
2019-Mar-17 03:01S 03°12' W 058°19'714.8
2019-Mar-17 02:31S 03°10' W 058°26'713.4
2019-Mar-17 02:01S 03°12' W 058°33'917.7
2019-Mar-17 01:31S 03°21' W 058°35'5617.0
2019-Mar-16 22:13S 03°08' W 059°29'419.1
2019-Mar-16 22:00S 03°06' W 059°33'918.3
2019-Mar-16 21:31S 03°04' W 059°42'1019.7
2019-Mar-16 21:01S 03°06' W 059°52'713.6
2019-Mar-16 20:30S 03°10' W 059°57'5 9.6
2019-Mar-16 20:00S 03°09' W 060°02'0 0.9
2019-Mar-16 19:29S 03°08' W 060°02'0 0.0
2019-Mar-16 18:53S 03°08' W 060°02'0 0.0
2019-Mar-16 18:29S 03°08' W 060°02'0 0.0
2019-Mar-16 17:56S 03°08' W 060°02'0 0.0
2019-Mar-16 17:29S 03°08' W 060°02'0 0.0
2019-Mar-16 16:59S 03°08' W 060°02'0 0.0
2019-Mar-16 16:17S 03°08' W 060°02'0 0.0
2019-Mar-16 15:56S 03°08' W 060°02'0 0.0
2019-Mar-16 15:26S 03°08' W 060°02'0 0.0
2019-Mar-16 14:59S 03°08' W 060°02'0 0.0
2019-Mar-16 14:17S 03°08' W 060°02'0 0.0
2019-Mar-16 13:59S 03°08' W 060°02'0 0.0
2019-Mar-16 13:29S 03°08' W 060°02'0 0.0
2019-Mar-16 12:56S 03°08' W 060°02'0 0.0
2019-Mar-16 12:26S 03°08' W 060°02'0 0.0
2019-Mar-16 11:56S 03°08' W 060°02'0 0.0
2019-Mar-16 11:23S 03°08' W 060°02'0 0.0
2019-Mar-16 10:59S 03°08' W 060°02'0 0.0
2019-Mar-16 10:29S 03°08' W 060°02'0 0.0
2019-Mar-16 09:59S 03°08' W 060°02'0 0.0
2019-Mar-16 09:26S 03°08' W 060°02'0 0.0
2019-Mar-16 08:53S 03°08' W 060°02'0 0.0
2019-Mar-16 08:29S 03°08' W 060°02'0 0.0
2019-Mar-16 07:56S 03°08' W 060°02'0 0.0
2019-Mar-16 07:29S 03°08' W 060°02'0 0.0
2019-Mar-16 06:59S 03°08' W 060°02'0 0.0
2019-Mar-16 06:29S 03°08' W 060°02'0 0.0
2019-Mar-16 05:59S 03°08' W 060°02'0 0.0
2019-Mar-16 05:29S 03°08' W 060°02'0 0.0
2019-Mar-16 04:59S 03°08' W 060°02'0 0.0
2019-Mar-16 04:26S 03°08' W 060°02'0 0.0
2019-Mar-16 03:59S 03°08' W 060°02'0 0.0
2019-Mar-16 03:29S 03°08' W 060°02'0 0.0
2019-Mar-16 02:59S 03°08' W 060°02'0 0.0
2019-Mar-16 02:29S 03°08' W 060°02'0 0.0
2019-Mar-16 01:59S 03°08' W 060°02'0 0.0
2019-Mar-16 01:23S 03°08' W 060°02'0 0.0
2019-Mar-16 00:56S 03°08' W 060°02'0 0.0
2019-Mar-16 00:26S 03°08' W 060°02'0 0.0
2019-Mar-15 23:56S 03°08' W 060°02'0 0.0
2019-Mar-15 23:26S 03°08' W 060°02'0 0.0
2019-Mar-15 22:53S 03°08' W 060°02'0 0.0
2019-Mar-15 22:29S 03°08' W 060°02'0 0.0
2019-Mar-15 21:59S 03°08' W 060°02'0 0.0
2019-Mar-15 21:23S 03°08' W 060°02'0 0.0
2019-Mar-15 20:59S 03°08' W 060°02'0 0.0
2019-Mar-15 20:26S 03°08' W 060°02'0 0.0
2019-Mar-15 19:47S 03°08' W 060°02'0 0.0
2019-Mar-15 19:29S 03°08' W 060°02'0 0.0
2019-Mar-15 18:56S 03°08' W 060°02'0 0.0
2019-Mar-15 18:26S 03°08' W 060°02'0 0.0
2019-Mar-15 17:59S 03°08' W 060°02'0 0.0
2019-Mar-15 17:29S 03°08' W 060°02'0 0.0
2019-Mar-15 16:59S 03°08' W 060°02'0 0.0
2019-Mar-15 16:29S 03°08' W 060°02'0 0.0
2019-Mar-15 15:59S 03°08' W 060°02'0 0.0
2019-Mar-15 15:29S 03°08' W 060°02'0 0.0
2019-Mar-15 14:56S 03°08' W 060°02'0 0.0
2019-Mar-15 14:26S 03°08' W 060°02'0 0.0
2019-Mar-15 13:59S 03°08' W 060°02'0 0.0
2019-Mar-15 13:30S 03°08' W 060°02'1 2.5
2019-Mar-15 13:00S 03°09' W 060°01'4 8.1
2019-Mar-15 12:30S 03°10' W 059°57'4 8.7
2019-Mar-15 12:00S 03°07' W 059°54'91239.4
2019-Mar-15 12:00S 03°00' W 059°48'4 8.2 120 / 51008.010.8 27.025.628.0
2019-Mar-15 11:31S 03°04' W 059°47'816.0
2019-Mar-15 11:01S 03°05' W 059°39'10616.0
2019-Mar-15 11:00S 03°00' W 059°30'713.8 030 / 71007.010.8 27.025.628.0
2019-Mar-15 10:27S 03°07' W 059°31'1716.9
2019-Mar-15 09:27S 03°14' W 059°15'817.2
2019-Mar-15 08:59S 03°16' W 059°07'916.6
2019-Mar-15 08:27S 03°15' W 058°59'816.5
2019-Mar-15 07:57S 03°18' W 058°51'716.7
2019-Mar-15 07:30S 03°22' W 058°44'815.3
2019-Mar-15 07:01S 03°23' W 058°37'815.3
2019-Mar-15 06:31S 03°16' W 058°34'815.5
2019-Mar-15 06:01S 03°09' W 058°30'4 8.8
2019-Mar-15 05:31S 03°10' W 058°26'714.1
2019-Mar-15 05:00S 03°12' W 058°19'713.8
2019-Mar-15 04:30S 03°12' W 058°12'714.9
2019-Mar-15 04:00S 03°04' W 058°10'815.7
2019-Mar-15 03:30S 02°57' W 058°09'815.4
2019-Mar-15 03:00S 02°50' W 058°05'120 6.5
2019-Mar-14 08:30S 02°10' W 056°11'510.7
2019-Mar-14 08:00S 02°07' W 056°07'37 8.6
2019-Mar-14 03:42S 01°56' W 055°31'2110.1
2019-Mar-14 01:39S 02°08' W 055°14'110.3
2019-Mar-14 01:30S 02°08' W 055°13'510.8
2019-Mar-14 01:00S 02°09' W 055°07'610.5
2019-Mar-14 00:27S 02°09' W 055°01'910.1
2019-Mar-13 23:36S 02°10' W 054°53'110.5
2019-Mar-13 23:30S 02°09' W 054°52'5 9.9
2019-Mar-13 23:00S 02°12' W 054°47'511.0
2019-Mar-13 22:30S 02°17' W 054°45'510.6
2019-Mar-13 22:00S 02°22' W 054°44'3 5.4
2019-Mar-13 21:31S 02°25' W 054°44'0 0.5
2019-Mar-13 20:58S 02°25' W 054°44'0 0.0
2019-Mar-13 20:28S 02°25' W 054°44'0 0.0
2019-Mar-13 19:58S 02°25' W 054°44'0 0.0
2019-Mar-13 19:28S 02°25' W 054°44'0 0.0
2019-Mar-13 18:58S 02°25' W 054°44'0 0.0
2019-Mar-13 18:28S 02°25' W 054°44'0 0.0
2019-Mar-13 17:58S 02°25' W 054°44'0 0.0
2019-Mar-13 17:28S 02°25' W 054°44'0 0.0
2019-Mar-13 16:58S 02°25' W 054°44'0 0.0
2019-Mar-13 16:28S 02°25' W 054°44'0 0.0
2019-Mar-13 15:58S 02°25' W 054°44'0 0.0
2019-Mar-13 15:28S 02°25' W 054°44'0 0.0
2019-Mar-13 14:58S 02°25' W 054°44'0 0.0
2019-Mar-13 14:28S 02°25' W 054°44'0 0.0
2019-Mar-13 13:58S 02°25' W 054°44'0 0.0
2019-Mar-13 13:28S 02°25' W 054°44'0 0.0
2019-Mar-13 12:58S 02°25' W 054°44'0 0.0
2019-Mar-13 12:28S 02°25' W 054°44'0 0.0
2019-Mar-13 11:58S 02°25' W 054°44'0 0.0
2019-Mar-13 11:28S 02°25' W 054°44'0 0.0
2019-Mar-13 10:58S 02°25' W 054°44'0 0.0
2019-Mar-13 10:28S 02°25' W 054°44'0 0.0
2019-Mar-13 10:00S 02°25' W 054°44'2 3.9
2019-Mar-13 09:31S 02°25' W 054°42'511.0
2019-Mar-13 09:00S 02°27' W 054°37'611.7
2019-Mar-13 08:30S 02°28' W 054°32'611.7
2019-Mar-13 08:00S 02°26' W 054°26'612.3
2019-Mar-13 07:30S 02°24' W 054°20'20412.5
2019-Mar-12 15:08S 00°31' W 051°30'215.1
2019-Mar-12 15:00S 00°30' W 051°28'815.2
2019-Mar-12 14:30S 00°24' W 051°24'815.5
2019-Mar-12 14:00S 00°17' W 051°21'815.2
2019-Mar-12 13:30S 00°11' W 051°16'612.3
2019-Mar-12 13:00S 00°07' W 051°11'612.4
2019-Mar-12 12:30S 00°04' W 051°06'0 0.7
2019-Mar-12 11:56S 00°04' W 051°06'0 0.1
2019-Mar-12 11:26S 00°04' W 051°06'0 0.2
2019-Mar-12 11:00S 00°04' W 051°06'4 7.5
2019-Mar-12 10:30S 00°01' W 051°03'4 8.4
2019-Mar-12 10:00N 00°02' W 051°00'2144.5
2019-Mar-12 10:00N 00°00' W 051°00'611.7 020 / 131010.010.8 27.022.628.0
2019-Mar-12 09:30N 00°06' W 050°59'4 7.5
2019-Mar-12 09:00N 00°08' W 050°56'  
Track history (hours):
 
Tides and Currents Weather Stations Pressure Air Temp Water Temp Dewpoint Dewpoint Depression Visibility Wind Speed Wind Dir Waves Ship Positions

Veendam (Netherlands)

Last reported at 2019-Mar-21 12:00 UTC. Time now 2019-Mar-22 12:29 UTC.
Position N 09°18' W 056°12'.

Type: Ship. MMSI: 246506000.

Wind from 060 at 25 knots

Barometer 1013.0 mb
Air temperature 26.0 ° C
Visibility: greater than 10.8 NM
Dewpoint 19.9 ° C
Water temperature 27.0 ° C

Date/timePositionNaut miles runAvg speedWind from/ knotsBaromVisibWave heightAir tempDewpointWater temp
2019-Mar-21 12:00N 09°18' W 056°12'1716.9 060 / 251013.010.8 26.019.927.0
2019-Mar-21 11:00N 09°06' W 056°00'2121.4 060 / 251012.010.8 26.019.927.0
2019-Mar-21 10:00N 08°54' W 055°42'44919.5 050 / 251012.010.8 26.019.927.0
2019-Mar-20 11:00N 03°48' W 050°12'2221.6 050 / 301009.010.8 28.022.128.0
2019-Mar-20 10:00N 03°36' W 049°54'6817.0 050 / 301009.010.8 28.022.128.0
2019-Mar-20 06:00N 02°48' W 049°06'18614.3 050 / 281009.010.8 27.024.129.0
2019-Mar-19 17:02N 00°11' W 050°45'117.3
2019-Mar-19 16:57N 00°11' W 050°47'716.6
2019-Mar-19 16:30N 00°10' W 050°54'714.3
2019-Mar-19 16:00N 00°05' W 050°59'713.9
2019-Mar-19 15:30S 00°01' W 051°03'611.3
2019-Mar-19 15:00S 00°05' W 051°07'612.4
2019-Mar-19 14:30S 00°08' W 051°13'510.4
2019-Mar-19 14:00S 00°11' W 051°16'917.2
2019-Mar-19 13:30S 00°18' W 051°21'1018.9
2019-Mar-19 12:58S 00°27' W 051°26'3417.3
2019-Mar-19 11:00S 01°00' W 051°36'1313.4 060 / 121010.010.8 26.024.628.0
2019-Mar-19 10:00S 01°06' W 051°48'1919.0 030 / 121009.010.8 26.024.628.0
2019-Mar-19 09:00S 01°24' W 051°54'13318.2 070 / 141009.010.8 25.023.528.0
2019-Mar-19 01:43S 02°02' W 054°01'2016.5
2019-Mar-19 00:32S 02°21' W 054°05'215.1
2019-Mar-19 00:25S 02°22' W 054°06'717.7
2019-Mar-19 00:00S 02°23' W 054°13'1019.1
2019-Mar-18 23:30S 02°25' W 054°23'918.4
2019-Mar-18 23:01S 02°28' W 054°32'917.7
2019-Mar-18 22:30S 02°25' W 054°40'4 8.0
2019-Mar-18 22:00S 02°24' W 054°44'4 7.9
2019-Mar-18 21:30S 02°24' W 054°48'815.9
2019-Mar-18 21:00S 02°26' W 054°56'610.4
2019-Mar-18 20:29S 02°30' W 054°59'2 0.2
2019-Mar-18 09:45S 02°28' W 055°00'312.3
2019-Mar-18 09:30S 02°26' W 054°58'612.4
2019-Mar-18 09:01S 02°24' W 054°52'611.3
2019-Mar-18 08:30S 02°24' W 054°46'3 6.5
2019-Mar-18 08:00S 02°25' W 054°43'3 6.9
2019-Mar-18 07:31S 02°21' W 054°44'816.2
2019-Mar-18 07:00S 02°13' W 054°47'714.1
2019-Mar-18 06:30S 02°10' W 054°52'816.3
2019-Mar-18 06:00S 02°13' W 054°60'611.1
2019-Mar-18 05:30S 02°12' W 055°05'816.1
2019-Mar-18 05:00S 02°09' W 055°13'5212.6
2019-Mar-18 00:51S 02°06' W 056°05'615.0
2019-Mar-18 00:29S 02°09' W 056°10'114 5.9
2019-Mar-17 05:11S 02°48' W 057°57'618.4
2019-Mar-17 04:53S 02°49' W 058°03'717.7
2019-Mar-17 04:30S 02°53' W 058°08'1018.8
2019-Mar-17 03:59S 03°03' W 058°10'818.0
2019-Mar-17 03:30S 03°11' W 058°12'714.9
2019-Mar-17 03:01S 03°12' W 058°19'714.8
2019-Mar-17 02:31S 03°10' W 058°26'713.4
2019-Mar-17 02:01S 03°12' W 058°33'917.7
2019-Mar-17 01:31S 03°21' W 058°35'5617.0
2019-Mar-16 22:13S 03°08' W 059°29'419.1
2019-Mar-16 22:00S 03°06' W 059°33'918.3
2019-Mar-16 21:31S 03°04' W 059°42'1019.7
2019-Mar-16 21:01S 03°06' W 059°52'713.6
2019-Mar-16 20:30S 03°10' W 059°57'5 9.6
2019-Mar-16 20:00S 03°09' W 060°02'0 0.9
2019-Mar-16 19:29S 03°08' W 060°02'0 0.0
2019-Mar-16 18:53S 03°08' W 060°02'0 0.0
2019-Mar-16 18:29S 03°08' W 060°02'0 0.0
2019-Mar-16 17:56S 03°08' W 060°02'0 0.0
2019-Mar-16 17:29S 03°08' W 060°02'0 0.0
2019-Mar-16 16:59S 03°08' W 060°02'0 0.0
2019-Mar-16 16:17S 03°08' W 060°02'0 0.0
2019-Mar-16 15:56S 03°08' W 060°02'0 0.0
2019-Mar-16 15:26S 03°08' W 060°02'0 0.0
2019-Mar-16 14:59S 03°08' W 060°02'0 0.0
2019-Mar-16 14:17S 03°08' W 060°02'0 0.0
2019-Mar-16 13:59S 03°08' W 060°02'0 0.0
2019-Mar-16 13:29S 03°08' W 060°02'0 0.0
2019-Mar-16 12:56S 03°08' W 060°02'0 0.0
2019-Mar-16 12:26S 03°08' W 060°02'0 0.0
2019-Mar-16 11:56S 03°08' W 060°02'0 0.0
2019-Mar-16 11:23S 03°08' W 060°02'0 0.0
2019-Mar-16 10:59S 03°08' W 060°02'0 0.0
2019-Mar-16 10:29S 03°08' W 060°02'0 0.0
2019-Mar-16 09:59S 03°08' W 060°02'0 0.0
2019-Mar-16 09:26S 03°08' W 060°02'0 0.0
2019-Mar-16 08:53S 03°08' W 060°02'0 0.0
2019-Mar-16 08:29S 03°08' W 060°02'0 0.0
2019-Mar-16 07:56S 03°08' W 060°02'0 0.0
2019-Mar-16 07:29S 03°08' W 060°02'0 0.0
2019-Mar-16 06:59S 03°08' W 060°02'0 0.0
2019-Mar-16 06:29S 03°08' W 060°02'0 0.0
2019-Mar-16 05:59S 03°08' W 060°02'0 0.0
2019-Mar-16 05:29S 03°08' W 060°02'0 0.0
2019-Mar-16 04:59S 03°08' W 060°02'0 0.0
2019-Mar-16 04:26S 03°08' W 060°02'0 0.0
2019-Mar-16 03:59S 03°08' W 060°02'0 0.0
2019-Mar-16 03:29S 03°08' W 060°02'0 0.0
2019-Mar-16 02:59S 03°08' W 060°02'0 0.0
2019-Mar-16 02:29S 03°08' W 060°02'0 0.0
2019-Mar-16 01:59S 03°08' W 060°02'0 0.0
2019-Mar-16 01:23S 03°08' W 060°02'0 0.0
2019-Mar-16 00:56S 03°08' W 060°02'0 0.0
2019-Mar-16 00:26S 03°08' W 060°02'0 0.0
2019-Mar-15 23:56S 03°08' W 060°02'0 0.0
2019-Mar-15 23:26S 03°08' W 060°02'0 0.0
2019-Mar-15 22:53S 03°08' W 060°02'0 0.0
2019-Mar-15 22:29S 03°08' W 060°02'0 0.0
2019-Mar-15 21:59S 03°08' W 060°02'0 0.0
2019-Mar-15 21:23S 03°08' W 060°02'0 0.0
2019-Mar-15 20:59S 03°08' W 060°02'0 0.0
2019-Mar-15 20:26S 03°08' W 060°02'0 0.0
2019-Mar-15 19:47S 03°08' W 060°02'0 0.0
2019-Mar-15 19:29S 03°08' W 060°02'0 0.0
2019-Mar-15 18:56S 03°08' W 060°02'0 0.0
2019-Mar-15 18:26S 03°08' W 060°02'0 0.0
2019-Mar-15 17:59S 03°08' W 060°02'0 0.0
2019-Mar-15 17:29S 03°08' W 060°02'0 0.0
2019-Mar-15 16:59S 03°08' W 060°02'0 0.0
2019-Mar-15 16:29S 03°08' W 060°02'0 0.0
2019-Mar-15 15:59S 03°08' W 060°02'0 0.0
2019-Mar-15 15:29S 03°08' W 060°02'0 0.0
2019-Mar-15 14:56S 03°08' W 060°02'0 0.0
2019-Mar-15 14:26S 03°08' W 060°02'0 0.0
2019-Mar-15 13:59S 03°08' W 060°02'0 0.0
2019-Mar-15 13:30S 03°08' W 060°02'1 2.5
2019-Mar-15 13:00S 03°09' W 060°01'4 8.1
2019-Mar-15 12:30S 03°10' W 059°57'4 8.7
2019-Mar-15 12:00S 03°07' W 059°54'91239.4
2019-Mar-15 12:00S 03°00' W 059°48'4 8.2 120 / 51008.010.8 27.025.628.0
2019-Mar-15 11:31S 03°04' W 059°47'816.0
2019-Mar-15 11:01S 03°05' W 059°39'10616.0
2019-Mar-15 11:00S 03°00' W 059°30'713.8 030 / 71007.010.8 27.025.628.0
2019-Mar-15 10:27S 03°07' W 059°31'1716.9
2019-Mar-15 09:27S 03°14' W 059°15'817.2
2019-Mar-15 08:59S 03°16' W 059°07'916.6
2019-Mar-15 08:27S 03°15' W 058°59'816.5
2019-Mar-15 07:57S 03°18' W 058°51'716.7
2019-Mar-15 07:30S 03°22' W 058°44'815.3
2019-Mar-15 07:01S 03°23' W 058°37'815.3
2019-Mar-15 06:31S 03°16' W 058°34'815.5
2019-Mar-15 06:01S 03°09' W 058°30'4 8.8
2019-Mar-15 05:31S 03°10' W 058°26'714.1
2019-Mar-15 05:00S 03°12' W 058°19'713.8
2019-Mar-15 04:30S 03°12' W 058°12'714.9
2019-Mar-15 04:00S 03°04' W 058°10'815.7
2019-Mar-15 03:30S 02°57' W 058°09'815.4
2019-Mar-15 03:00S 02°50' W 058°05'120 6.5
2019-Mar-14 08:30S 02°10' W 056°11'510.7
2019-Mar-14 08:00S 02°07' W 056°07'37 8.6
2019-Mar-14 03:42S 01°56' W 055°31'2110.1
2019-Mar-14 01:39S 02°08' W 055°14'110.3
2019-Mar-14 01:30S 02°08' W 055°13'510.8
2019-Mar-14 01:00S 02°09' W 055°07'610.5
2019-Mar-14 00:27S 02°09' W 055°01'910.1
2019-Mar-13 23:36S 02°10' W 054°53'110.5
2019-Mar-13 23:30S 02°09' W 054°52'5 9.9
2019-Mar-13 23:00S 02°12' W 054°47'511.0
2019-Mar-13 22:30S 02°17' W 054°45'510.6
2019-Mar-13 22:00S 02°22' W 054°44'3 5.4
2019-Mar-13 21:31S 02°25' W 054°44'0 0.5
2019-Mar-13 20:58S 02°25' W 054°44'0 0.0
2019-Mar-13 20:28S 02°25' W 054°44'0 0.0
2019-Mar-13 19:58S 02°25' W 054°44'0 0.0
2019-Mar-13 19:28S 02°25' W 054°44'0 0.0
2019-Mar-13 18:58S 02°25' W 054°44'0 0.0
2019-Mar-13 18:28S 02°25' W 054°44'0 0.0
2019-Mar-13 17:58S 02°25' W 054°44'0 0.0
2019-Mar-13 17:28S 02°25' W 054°44'0 0.0
2019-Mar-13 16:58S 02°25' W 054°44'0 0.0
2019-Mar-13 16:28S 02°25' W 054°44'0 0.0
2019-Mar-13 15:58S 02°25' W 054°44'0 0.0
2019-Mar-13 15:28S 02°25' W 054°44'0 0.0
2019-Mar-13 14:58S 02°25' W 054°44'0 0.0
2019-Mar-13 14:28S 02°25' W 054°44'0 0.0
2019-Mar-13 13:58S 02°25' W 054°44'0 0.0
2019-Mar-13 13:28S 02°25' W 054°44'0 0.0
2019-Mar-13 12:58S 02°25' W 054°44'0 0.0
2019-Mar-13 12:28S 02°25' W 054°44'0 0.0
2019-Mar-13 11:58S 02°25' W 054°44'0 0.0
2019-Mar-13 11:28S 02°25' W 054°44'0 0.0
2019-Mar-13 10:58S 02°25' W 054°44'0 0.0
2019-Mar-13 10:28S 02°25' W 054°44'0 0.0
2019-Mar-13 10:00S 02°25' W 054°44'2 3.9
2019-Mar-13 09:31S 02°25' W 054°42'511.0
2019-Mar-13 09:00S 02°27' W 054°37'611.7
2019-Mar-13 08:30S 02°28' W 054°32'611.7
2019-Mar-13 08:00S 02°26' W 054°26'612.3
2019-Mar-13 07:30S 02°24' W 054°20'20412.5
2019-Mar-12 15:08S 00°31' W 051°30'215.1
2019-Mar-12 15:00S 00°30' W 051°28'815.2
2019-Mar-12 14:30S 00°24' W 051°24'815.5
2019-Mar-12 14:00S 00°17' W 051°21'815.2
2019-Mar-12 13:30S 00°11' W 051°16'612.3
2019-Mar-12 13:00S 00°07' W 051°11'612.4
2019-Mar-12 12:30S 00°04' W 051°06'0 0.7
2019-Mar-12 11:56S 00°04' W 051°06'0 0.1
2019-Mar-12 11:26S 00°04' W 051°06'0 0.2
2019-Mar-12 11:00S 00°04' W 051°06'4 7.5
2019-Mar-12 10:30S 00°01' W 051°03'4 8.4
2019-Mar-12 10:00N 00°02' W 051°00'2144.5
2019-Mar-12 10:00N 00°00' W 051°00'611.7 020 / 131010.010.8 27.022.628.0
2019-Mar-12 09:30N 00°06' W 050°59'4 7.5
2019-Mar-12 09:00N 00°08' W 050°56'  

Dump ship's entire track history